createdAt,value
2019-05-16T00:01:53.639Z,10.25
2019-05-16T00:05:58.583Z,10.26
2019-05-16T00:10:04.962Z,10.31
2019-05-16T00:14:09.838Z,10.34
2019-05-16T00:18:14.735Z,10.35
2019-05-16T00:22:19.627Z,10.36
2019-05-16T00:26:24.527Z,10.35
2019-05-16T00:30:29.420Z,10.34
2019-05-16T00:34:34.309Z,10.35
2019-05-16T00:38:39.204Z,10.40
2019-05-16T00:42:44.110Z,10.31
2019-05-16T00:46:49.005Z,10.25
2019-05-16T00:50:53.910Z,10.08
2019-05-16T00:54:58.805Z,9.88
2019-05-16T00:59:05.123Z,9.75
2019-05-16T01:03:10.012Z,9.72
2019-05-16T01:07:14.904Z,9.70
2019-05-16T01:11:19.791Z,9.60
2019-05-16T01:15:24.681Z,9.47
2019-05-16T01:19:29.553Z,9.24
2019-05-16T01:23:34.444Z,9.04
2019-05-16T01:27:39.336Z,8.89
2019-05-16T01:31:44.220Z,8.77
2019-05-16T01:35:49.104Z,8.74
2019-05-16T01:39:53.983Z,8.67
2019-05-16T01:43:58.872Z,8.49
2019-05-16T01:48:03.768Z,8.41
2019-05-16T01:52:08.711Z,8.34
2019-05-16T01:56:14.606Z,8.16
2019-05-16T02:00:24.991Z,8.05
2019-05-16T02:04:28.635Z,7.99
2019-05-16T02:08:33.363Z,7.98
2019-05-16T02:12:38.732Z,7.93
2019-05-16T02:16:44.748Z,7.89
2019-05-16T02:20:49.639Z,7.94
2019-05-16T02:24:54.523Z,8.15
2019-05-16T02:29:00.844Z,8.29
2019-05-16T02:33:05.891Z,8.40
2019-05-16T02:37:23.617Z,8.47
2019-05-16T02:41:17.359Z,8.50
2019-05-16T02:45:24.627Z,8.59
2019-05-16T02:49:30.695Z,8.63
2019-05-16T02:53:35.657Z,8.63
2019-05-16T02:57:41.466Z,8.65
2019-05-16T03:01:46.816Z,8.66
2019-05-16T03:05:53.641Z,8.69
2019-05-16T03:10:01.504Z,8.74
2019-05-16T03:14:05.812Z,8.77
2019-05-16T03:18:12.310Z,8.78
2019-05-16T03:22:22.038Z,8.83
2019-05-16T03:26:25.350Z,8.90
2019-05-16T03:30:35.303Z,8.92
2019-05-16T03:34:36.824Z,8.85
2019-05-16T03:38:41.712Z,8.77
2019-05-16T03:42:46.593Z,8.80
2019-05-16T03:46:51.935Z,8.84
2019-05-16T03:50:56.955Z,8.92
2019-05-16T03:55:02.180Z,9.01
2019-05-16T03:59:07.103Z,9.07
2019-05-16T04:03:11.990Z,9.10
2019-05-16T04:07:16.872Z,9.13
2019-05-16T04:11:23.547Z,9.14
2019-05-16T04:15:31.099Z,9.11
2019-05-16T04:19:35.289Z,9.14
2019-05-16T04:23:41.950Z,9.20
2019-05-16T04:27:46.753Z,9.31
2019-05-16T04:31:51.635Z,9.29
2019-05-16T04:35:56.525Z,9.28
2019-05-16T04:40:01.924Z,9.28
2019-05-16T04:44:06.899Z,9.32
2019-05-16T04:48:11.802Z,9.40
2019-05-16T04:52:16.678Z,9.48
2019-05-16T04:56:21.996Z,9.50
2019-05-16T05:00:27.280Z,9.55
2019-05-16T05:04:32.172Z,9.64
2019-05-16T05:08:53.019Z,9.75
2019-05-16T05:12:43.642Z,9.77
2019-05-16T05:16:50.706Z,9.66
2019-05-16T05:20:55.110Z,9.57
2019-05-16T05:25:00.284Z,9.48
2019-05-16T05:29:05.251Z,9.35
2019-05-16T05:33:11.209Z,9.25
2019-05-16T05:37:16.106Z,9.20
2019-05-16T05:41:20.992Z,9.27
2019-05-16T05:45:25.872Z,9.32
2019-05-16T05:49:30.760Z,9.42
2019-05-16T05:53:35.650Z,9.56
2019-05-16T05:57:40.746Z,9.65
2019-05-16T06:01:45.602Z,9.65
2019-05-16T06:05:50.753Z,9.49
2019-05-16T06:09:56.724Z,9.54
2019-05-16T06:14:01.784Z,9.45
2019-05-16T06:18:06.681Z,9.43
2019-05-16T06:22:11.572Z,9.43
2019-05-16T06:26:16.449Z,9.53
2019-05-16T06:30:21.677Z,9.63
2019-05-16T06:34:27.536Z,9.85
2019-05-16T06:38:32.428Z,10.08
2019-05-16T06:42:37.326Z,10.18
2019-05-16T06:46:56.140Z,10.42
2019-05-16T06:50:51.422Z,10.59
2019-05-16T06:54:55.453Z,10.66
2019-05-16T06:59:00.893Z,11.07
2019-05-16T07:03:05.824Z,11.52
2019-05-16T07:07:12.666Z,12.39
2019-05-16T07:11:17.304Z,12.02
2019-05-16T07:15:22.262Z,11.68
2019-05-16T07:19:27.157Z,11.79
2019-05-16T07:23:32.051Z,11.79
2019-05-16T07:27:36.953Z,11.84
2019-05-16T07:31:41.839Z,11.79
2019-05-16T07:35:46.731Z,11.95
2019-05-16T07:39:51.622Z,12.08
2019-05-16T07:43:56.515Z,12.31
2019-05-16T07:48:01.405Z,12.45
2019-05-16T07:52:06.303Z,12.67
2019-05-16T07:56:11.200Z,12.84
2019-05-16T08:00:17.039Z,12.83
2019-05-16T08:04:21.939Z,12.67
2019-05-16T08:08:26.821Z,13.14
2019-05-16T08:12:33.043Z,13.31
2019-05-16T08:16:40.544Z,13.17
2019-05-16T08:20:44.717Z,13.53
2019-05-16T08:24:50.502Z,13.54
2019-05-16T08:28:55.461Z,13.24
2019-05-16T08:33:02.389Z,12.96
2019-05-16T08:37:30.636Z,13.25
2019-05-16T08:41:17.100Z,13.75
2019-05-16T08:45:21.288Z,13.70
2019-05-16T08:49:26.346Z,13.39
2019-05-16T08:53:31.809Z,13.29
2019-05-16T08:57:37.020Z,13.68
2019-05-16T09:01:50.741Z,13.90
2019-05-16T09:05:48.502Z,14.02
2019-05-16T09:09:53.398Z,13.80
2019-05-16T09:13:58.289Z,13.73
2019-05-16T09:18:03.181Z,13.63
2019-05-16T09:22:08.079Z,13.42
2019-05-16T09:26:16.035Z,13.48
2019-05-16T09:30:19.637Z,13.72
2019-05-16T09:34:24.531Z,14.02
2019-05-16T09:38:29.435Z,14.20
2019-05-16T09:42:37.027Z,14.18
2019-05-16T09:46:41.078Z,14.73
2019-05-16T09:50:46.924Z,14.74
2019-05-16T09:54:51.911Z,14.55
2019-05-16T09:58:57.391Z,14.35
2019-05-16T10:03:02.588Z,14.56
2019-05-16T10:07:07.552Z,14.37
2019-05-16T10:11:12.444Z,14.44
2019-05-16T10:15:17.747Z,14.42
2019-05-16T10:19:22.569Z,14.40
2019-05-16T10:23:28.406Z,14.24
2019-05-16T10:27:33.441Z,14.49
2019-05-16T10:31:48.580Z,14.60
2019-05-16T10:35:48.014Z,14.71
2019-05-16T10:39:52.592Z,14.75
2019-05-16T10:43:57.486Z,14.75
2019-05-16T10:48:02.387Z,14.98
2019-05-16T10:52:07.447Z,15.16
2019-05-16T10:56:13.332Z,15.24
2019-05-16T11:00:41.442Z,15.11
2019-05-16T11:04:31.778Z,14.80
2019-05-16T11:08:31.748Z,14.61
2019-05-16T11:12:47.768Z,14.58
2019-05-16T11:16:43.262Z,14.52
2019-05-16T11:20:49.151Z,14.61
2019-05-16T11:24:56.533Z,14.98
2019-05-16T11:29:02.019Z,15.16
2019-05-16T11:33:07.649Z,15.39
2019-05-16T11:37:13.813Z,15.66
2019-05-16T11:41:18.748Z,15.96
2019-05-16T11:45:27.063Z,15.97
2019-05-16T11:49:31.317Z,16.25
2019-05-16T11:53:37.896Z,16.25
2019-05-16T11:57:42.970Z,16.49
2019-05-16T12:01:47.874Z,16.63
2019-05-16T12:05:52.764Z,17.06
2019-05-16T12:09:57.659Z,17.23
2019-05-16T12:14:02.564Z,17.06
2019-05-16T12:18:08.508Z,16.81
2019-05-16T12:22:13.750Z,17.01
2019-05-16T12:26:18.642Z,17.02
2019-05-16T12:30:24.604Z,16.93
2019-05-16T12:34:29.498Z,16.59
2019-05-16T12:38:34.383Z,16.14
2019-05-16T12:42:39.348Z,16.07
2019-05-16T12:46:47.266Z,16.13
2019-05-16T12:50:51.598Z,16.31
2019-05-16T12:54:57.048Z,16.49
2019-05-16T12:59:02.065Z,16.84
2019-05-16T13:03:07.372Z,16.88
2019-05-16T13:07:12.351Z,16.98
2019-05-16T13:11:17.770Z,16.84
2019-05-16T13:15:22.806Z,16.86
2019-05-16T13:19:32.842Z,16.82
2019-05-16T13:23:34.317Z,16.27
2019-05-16T13:27:39.222Z,16.26
2019-05-16T13:31:44.115Z,16.30
2019-05-16T13:35:49.014Z,15.73
2019-05-16T13:39:53.907Z,15.21
2019-05-16T13:43:58.804Z,14.72
2019-05-16T13:48:03.700Z,14.42
2019-05-16T13:52:08.592Z,14.42
2019-05-16T13:56:13.815Z,14.21
2019-05-16T14:00:19.405Z,13.92
2019-05-16T14:04:26.337Z,13.54
2019-05-16T14:08:30.910Z,13.15
2019-05-16T14:12:36.723Z,13.06
2019-05-16T14:16:41.778Z,12.91
2019-05-16T14:20:46.877Z,12.73
2019-05-16T14:24:51.741Z,12.57
2019-05-16T14:28:57.778Z,12.49
2019-05-16T14:33:03.264Z,12.32
2019-05-16T14:37:08.238Z,12.03
2019-05-16T14:41:13.123Z,11.83
2019-05-16T14:45:19.050Z,11.80
2019-05-16T14:49:23.959Z,11.79
2019-05-16T14:53:28.854Z,11.89
2019-05-16T14:57:33.750Z,12.13
2019-05-16T15:01:38.643Z,12.14
2019-05-16T15:05:44.613Z,12.36
2019-05-16T15:09:50.586Z,12.30
2019-05-16T15:13:57.441Z,12.49
2019-05-16T15:18:02.081Z,12.67
2019-05-16T15:22:07.873Z,12.76
2019-05-16T15:26:13.120Z,12.64
2019-05-16T15:30:18.852Z,12.38
2019-05-16T15:34:23.752Z,12.14
2019-05-16T15:38:28.642Z,12.10
2019-05-16T15:42:33.533Z,11.86
2019-05-16T15:46:38.427Z,11.61
2019-05-16T15:50:43.394Z,11.35
2019-05-16T15:54:50.503Z,11.39
2019-05-16T15:58:55.403Z,11.38
2019-05-16T16:03:00.300Z,11.27
2019-05-16T16:07:07.696Z,10.92
2019-05-16T16:11:11.855Z,10.84
2019-05-16T16:15:17.362Z,10.92
2019-05-16T16:19:22.433Z,10.79
2019-05-16T16:23:27.538Z,10.85
2019-05-16T16:27:32.392Z,10.75
2019-05-16T16:31:38.357Z,10.62
2019-05-16T16:35:43.249Z,10.42
2019-05-16T16:39:48.149Z,10.30
2019-05-16T16:43:53.036Z,10.33
2019-05-16T16:47:57.929Z,10.28
2019-05-16T16:52:02.830Z,10.24
2019-05-16T16:56:07.824Z,10.27
2019-05-16T17:00:17.504Z,10.21
2019-05-16T17:04:21.411Z,10.16
2019-05-16T17:08:27.211Z,10.16
2019-05-16T17:12:32.394Z,10.12
2019-05-16T17:16:37.901Z,10.01
2019-05-16T17:20:42.863Z,9.93
2019-05-16T17:24:47.808Z,9.95
2019-05-16T17:28:52.695Z,9.90
2019-05-16T17:32:57.590Z,9.86
2019-05-16T17:37:02.482Z,9.90
2019-05-16T17:41:07.789Z,9.82
2019-05-16T17:45:13.744Z,9.79
2019-05-16T17:49:18.866Z,9.70
2019-05-16T17:53:26.647Z,9.73
2019-05-16T17:57:31.403Z,9.86
2019-05-16T18:01:36.298Z,9.86
2019-05-16T18:05:41.258Z,9.82
2019-05-16T18:09:48.332Z,9.76
2019-05-16T18:13:52.722Z,9.66
2019-05-16T18:17:57.615Z,9.64
2019-05-16T18:22:02.503Z,9.57
2019-05-16T18:26:07.915Z,9.49
2019-05-16T18:30:13.564Z,9.46
2019-05-16T18:34:18.454Z,9.53
2019-05-16T18:38:23.349Z,9.50
2019-05-16T18:42:28.269Z,9.44
2019-05-16T18:46:33.158Z,9.53
2019-05-16T18:50:38.383Z,9.37
2019-05-16T18:54:43.334Z,9.40
2019-05-16T18:58:48.226Z,9.29
2019-05-16T19:02:53.141Z,9.16
2019-05-16T19:06:59.648Z,9.09
2019-05-16T19:11:07.469Z,9.02
2019-05-16T19:15:12.237Z,8.91
2019-05-16T19:19:17.141Z,8.85
2019-05-16T19:23:22.030Z,8.76
2019-05-16T19:27:26.935Z,8.71
2019-05-16T19:31:31.816Z,8.78
2019-05-16T19:35:37.079Z,8.74
2019-05-16T19:39:41.966Z,8.71
2019-05-16T19:43:46.860Z,8.79
2019-05-16T19:47:51.757Z,8.85
2019-05-16T19:51:56.708Z,8.86
2019-05-16T19:56:01.525Z,8.89
2019-05-16T20:00:08.688Z,8.85
2019-05-16T20:04:16.093Z,8.78
2019-05-16T20:08:20.162Z,8.74
2019-05-16T20:12:26.277Z,8.72
2019-05-16T20:16:31.212Z,8.68
2019-05-16T20:20:37.278Z,8.65
2019-05-16T20:24:43.362Z,8.60
2019-05-16T20:28:48.232Z,8.58
2019-05-16T20:32:53.120Z,8.57
2019-05-16T20:36:58.008Z,8.52
2019-05-16T20:41:02.955Z,8.57
2019-05-16T20:45:09.305Z,8.59
2019-05-16T20:49:16.640Z,8.61
2019-05-16T20:53:20.743Z,8.60
2019-05-16T20:57:26.537Z,8.57
2019-05-16T21:01:31.683Z,8.59
2019-05-16T21:05:38.335Z,8.58
2019-05-16T21:09:43.151Z,8.55
2019-05-16T21:13:49.063Z,8.61
2019-05-16T21:17:54.000Z,8.66
2019-05-16T21:21:58.887Z,8.68
2019-05-16T21:26:03.847Z,8.73
2019-05-16T21:30:09.381Z,8.80
2019-05-16T21:34:16.096Z,8.85
2019-05-16T21:38:23.422Z,8.91
2019-05-16T21:42:28.296Z,9.04
2019-05-16T21:46:33.182Z,9.06
2019-05-16T21:50:38.067Z,9.01
2019-05-16T21:54:44.024Z,8.98
2019-05-16T21:58:48.910Z,9.11
2019-05-16T22:02:53.867Z,9.23
2019-05-16T22:06:58.962Z,9.28
2019-05-16T22:11:03.914Z,9.20
2019-05-16T22:15:10.467Z,9.22
2019-05-16T22:19:17.019Z,9.18
2019-05-16T22:23:21.923Z,9.11
2019-05-16T22:27:27.030Z,9.03
2019-05-16T22:31:33.941Z,9.05
2019-05-16T22:35:38.544Z,8.94
2019-05-16T22:39:43.434Z,8.96
2019-05-16T22:43:48.329Z,8.96
2019-05-16T22:47:53.210Z,9.05
2019-05-16T22:51:58.095Z,9.08
2019-05-16T22:56:02.977Z,9.11
2019-05-16T23:00:10.250Z,9.08
2019-05-16T23:04:16.911Z,9.06
2019-05-16T23:08:21.805Z,9.02
2019-05-16T23:12:26.755Z,9.03
2019-05-16T23:16:31.569Z,9.10
2019-05-16T23:20:37.160Z,9.15
2019-05-16T23:24:42.192Z,9.06
2019-05-16T23:28:47.295Z,9.06
2019-05-16T23:32:52.244Z,9.08
2019-05-16T23:36:57.176Z,9.09
2019-05-16T23:41:02.012Z,9.15
2019-05-16T23:45:08.946Z,9.08
2019-05-16T23:49:16.784Z,9.02
2019-05-16T23:53:21.553Z,8.96
2019-05-16T23:57:27.502Z,8.86
